Terminal Aerodrome Forecast
Issued by NWS

Home | Current Version | Previous Version | Graphics & Text | Print | Product List | Glossary On
Versions: 1 2 3 4 5 6 7 8 9 10 11 12 13 14 15 16 17 18 19 20 21 22 23 24 25 26 27 28 29 30 31 32 33 34 35 36 37 38 39
000
FTUS43 KGRB 310300 AAA
TAFRHI
TAF AMD
KRHI 310342Z 3104/3124 VRB02KT P6SM SCT010 BKN015
     FM310500 00000KT 4SM BR SCT002 SCT015
      TEMPO 3108/3112 1/4SM FG VV002
     FM311300 14003KT 3SM BR BKN006
     FM311600 15007KT P6SM SCT020=

USA.gov is the U.S. government's official web portal to all federal, state and local government web resources and services.